createdAt,value
2023-03-11T00:00:10.054Z,38.87
2023-03-11T00:02:14.505Z,38.94
2023-03-11T00:04:21.487Z,38.52
2023-03-11T00:06:25.928Z,38.67
2023-03-11T00:08:30.449Z,38.63
2023-03-11T00:10:36.271Z,38.87
2023-03-11T00:12:40.734Z,38.93
2023-03-11T00:14:45.315Z,38.57
2023-03-11T00:16:49.765Z,38.80
2023-03-11T00:18:54.374Z,38.58
2023-03-11T00:21:02.613Z,38.73
2023-03-11T00:23:08.102Z,38.47
2023-03-11T00:25:12.930Z,38.54
2023-03-11T00:27:17.344Z,38.58
2023-03-11T00:29:21.724Z,38.86
2023-03-11T00:31:26.616Z,38.49
2023-03-11T00:33:31.574Z,38.57
2023-03-11T00:35:36.820Z,38.63
2023-03-11T00:37:44.220Z,38.60
2023-03-11T00:39:48.812Z,38.29
2023-03-11T00:41:53.852Z,38.59
2023-03-11T00:43:58.220Z,38.38
2023-03-11T00:46:04.913Z,38.55
2023-03-11T00:48:09.893Z,38.22
2023-03-11T00:50:17.958Z,38.39
2023-03-11T00:52:22.391Z,38.28
2023-03-11T00:54:29.374Z,38.15
2023-03-11T00:56:33.848Z,38.25
2023-03-11T00:58:38.462Z,38.20
2023-03-11T01:00:43.285Z,38.43
2023-03-11T01:02:47.955Z,38.43
2023-03-11T01:04:56.364Z,38.17
2023-03-11T01:07:00.875Z,38.44
2023-03-11T01:09:05.795Z,38.04
2023-03-11T01:11:12.794Z,38.51
2023-03-11T01:13:17.298Z,38.16
2023-03-11T01:15:24.431Z,38.20
2023-03-11T01:17:28.865Z,38.13
2023-03-11T01:19:33.266Z,37.96
2023-03-11T01:21:37.665Z,38.20
2023-03-11T01:23:42.541Z,38.27
2023-03-11T01:25:49.148Z,38.19
2023-03-11T01:27:56.277Z,37.88
2023-03-11T01:30:00.893Z,37.92
2023-03-11T01:32:05.293Z,37.96
2023-03-11T01:34:09.813Z,38.13
2023-03-11T01:36:14.175Z,38.24
2023-03-11T01:38:18.860Z,37.87
2023-03-11T01:40:25.214Z,38.03
2023-03-11T01:42:29.912Z,38.08
2023-03-11T01:44:37.055Z,37.95
2023-03-11T01:47:03.416Z,37.97
2023-03-11T01:49:14.546Z,38.07
2023-03-11T01:51:21.066Z,38.01
2023-03-11T01:53:27.266Z,38.03
2023-03-11T01:55:32.133Z,38.19
2023-03-11T01:57:37.049Z,38.00
2023-03-11T01:59:47.342Z,38.13
2023-03-11T02:01:55.364Z,38.12
2023-03-11T02:04:00.628Z,38.09
2023-03-11T02:06:06.829Z,37.90
2023-03-11T02:08:13.634Z,38.10
2023-03-11T02:10:18.506Z,37.84
2023-03-11T02:12:23.205Z,38.00
2023-03-11T02:14:28.556Z,38.06
2023-03-11T02:16:35.688Z,38.06
2023-03-11T02:18:40.598Z,37.95
2023-03-11T02:20:48.196Z,37.85
2023-03-11T02:22:57.212Z,38.13
2023-03-11T02:25:05.723Z,37.86
2023-03-11T02:27:14.787Z,37.83
2023-03-11T02:29:19.482Z,38.08
2023-03-11T02:31:24.796Z,38.16
2023-03-11T02:33:32.252Z,37.83
2023-03-11T02:35:36.754Z,38.02
2023-03-11T02:37:46.218Z,37.81
2023-03-11T02:39:51.988Z,38.01
2023-03-11T02:41:56.437Z,37.88
2023-03-11T02:44:04.538Z,37.83
2023-03-11T02:46:10.215Z,38.12
2023-03-11T02:48:14.988Z,38.08
2023-03-11T02:50:20.015Z,38.02
2023-03-11T02:52:24.837Z,38.07
2023-03-11T02:54:29.455Z,38.03
2023-03-11T02:56:35.314Z,37.96
2023-03-11T02:58:39.718Z,38.10
2023-03-11T03:00:49.690Z,38.18
2023-03-11T03:02:56.002Z,37.88
2023-03-11T03:05:00.751Z,38.12
2023-03-11T03:07:05.321Z,37.93
2023-03-11T03:09:09.708Z,37.79
2023-03-11T03:11:14.364Z,37.95
2023-03-11T03:13:18.910Z,37.87
2023-03-11T03:15:23.474Z,37.92
2023-03-11T03:17:30.578Z,38.17
2023-03-11T03:19:35.144Z,38.03
2023-03-11T03:21:39.668Z,37.72
2023-03-11T03:23:44.120Z,37.98
2023-03-11T03:25:48.957Z,37.98
2023-03-11T03:27:53.664Z,37.65
2023-03-11T03:29:58.196Z,37.84
2023-03-11T03:32:02.713Z,37.82
2023-03-11T03:34:09.827Z,37.77
2023-03-11T03:36:16.107Z,37.93
2023-03-11T03:38:24.300Z,37.81
2023-03-11T03:40:30.754Z,37.71
2023-03-11T03:42:37.569Z,37.79
2023-03-11T03:44:43.161Z,37.89
2023-03-11T03:46:48.130Z,37.85
2023-03-11T03:48:52.966Z,37.55
2023-03-11T03:50:59.942Z,37.90
2023-03-11T03:53:04.347Z,37.85
2023-03-11T03:55:09.167Z,37.73
2023-03-11T03:57:14.774Z,37.67
2023-03-11T03:59:23.040Z,37.55
2023-03-11T04:01:32.233Z,37.91
2023-03-11T04:03:39.018Z,37.83
2023-03-11T04:05:46.894Z,37.77
2023-03-11T04:07:54.529Z,37.69
2023-03-11T04:09:59.864Z,37.58
2023-03-11T04:12:05.336Z,37.88
2023-03-11T04:14:11.575Z,37.87
2023-03-11T04:16:22.865Z,38.00
2023-03-11T04:18:29.538Z,37.64
2023-03-11T04:20:33.953Z,37.81
2023-03-11T04:22:38.417Z,37.55
2023-03-11T04:24:49.960Z,37.78
2023-03-11T04:26:55.103Z,37.82
2023-03-11T04:28:59.746Z,37.88
2023-03-11T04:31:07.527Z,37.60
2023-03-11T04:33:12.129Z,37.85
2023-03-11T04:35:16.723Z,37.68
2023-03-11T04:37:22.277Z,37.86
2023-03-11T04:39:27.062Z,37.57
2023-03-11T04:41:34.812Z,37.79
2023-03-11T04:43:39.236Z,37.69
2023-03-11T04:45:44.042Z,37.64
2023-03-11T04:47:50.476Z,37.85
2023-03-11T04:49:56.251Z,37.49
2023-03-11T04:52:01.182Z,37.52
2023-03-11T04:54:05.975Z,37.58
2023-03-11T04:56:11.125Z,37.32
2023-03-11T04:58:19.261Z,37.31
2023-03-11T05:00:25.409Z,37.51
2023-03-11T05:02:39.723Z,37.59
2023-03-11T05:04:45.371Z,37.45
2023-03-11T05:06:53.664Z,37.53
2023-03-11T05:09:00.856Z,37.40
2023-03-11T05:11:07.195Z,37.33
2023-03-11T05:13:11.744Z,37.45
2023-03-11T05:15:21.013Z,37.33
2023-03-11T05:17:25.594Z,37.48
2023-03-11T05:19:35.287Z,37.33
2023-03-11T05:21:49.471Z,37.08
2023-03-11T05:23:53.932Z,37.41
2023-03-11T05:25:58.463Z,37.09
2023-03-11T05:28:03.141Z,37.43
2023-03-11T05:30:11.668Z,37.43
2023-03-11T05:32:21.085Z,37.16
2023-03-11T05:34:27.011Z,37.38
2023-03-11T05:36:31.471Z,37.36
2023-03-11T05:38:35.956Z,37.34
2023-03-11T05:40:41.384Z,37.01
2023-03-11T05:42:45.896Z,37.32
2023-03-11T05:44:52.046Z,37.36
2023-03-11T05:46:57.248Z,37.07
2023-03-11T05:49:04.602Z,37.10
2023-03-11T05:51:09.909Z,37.17
2023-03-11T05:53:15.392Z,37.07
2023-03-11T05:55:20.691Z,37.39
2023-03-11T05:57:25.467Z,36.95
2023-03-11T05:59:29.954Z,37.28
2023-03-11T06:01:39.491Z,37.19
2023-03-11T06:03:44.376Z,37.12
2023-03-11T06:05:53.066Z,37.23
2023-03-11T06:07:58.075Z,37.07
2023-03-11T06:10:02.458Z,37.16
2023-03-11T06:12:08.842Z,37.00
2023-03-11T06:14:38.762Z,37.07
2023-03-11T06:16:43.924Z,37.17
2023-03-11T06:18:48.695Z,36.95
2023-03-11T06:20:56.468Z,37.18
2023-03-11T06:23:00.868Z,36.93
2023-03-11T06:25:05.502Z,37.26
2023-03-11T06:27:11.862Z,36.99
2023-03-11T06:29:18.670Z,37.03
2023-03-11T06:31:26.093Z,36.98
2023-03-11T06:33:34.137Z,37.08
2023-03-11T06:35:39.461Z,36.94
2023-03-11T06:37:46.485Z,37.21
2023-03-11T06:39:54.376Z,36.89
2023-03-11T06:42:01.172Z,36.95
2023-03-11T06:44:07.978Z,36.97
2023-03-11T06:46:15.286Z,37.06
2023-03-11T06:48:20.784Z,36.96
2023-03-11T06:50:26.077Z,36.91
2023-03-11T06:52:31.996Z,37.04
2023-03-11T06:54:39.216Z,37.16
2023-03-11T06:56:43.687Z,37.06
2023-03-11T06:58:48.501Z,37.17
2023-03-11T07:00:54.554Z,36.90
2023-03-11T07:02:59.001Z,36.85
2023-03-11T07:05:03.816Z,37.08
2023-03-11T07:07:09.001Z,36.96
2023-03-11T07:09:13.462Z,37.08
2023-03-11T07:11:24.823Z,37.09
2023-03-11T07:13:31.948Z,36.79
2023-03-11T07:15:36.596Z,37.03
2023-03-11T07:17:40.959Z,36.90
2023-03-11T07:19:46.288Z,37.03
2023-03-11T07:21:51.196Z,36.90
2023-03-11T07:23:56.202Z,37.23
2023-03-11T07:26:00.587Z,37.01
2023-03-11T07:28:07.710Z,37.06
2023-03-11T07:30:12.959Z,36.98
2023-03-11T07:32:17.981Z,36.94
2023-03-11T07:34:22.445Z,36.88
2023-03-11T07:36:27.794Z,37.10
2023-03-11T07:38:32.482Z,37.29
2023-03-11T07:40:37.060Z,37.22
2023-03-11T07:42:41.397Z,37.02
2023-03-11T07:44:48.521Z,37.33
2023-03-11T07:46:53.186Z,37.00
2023-03-11T07:48:58.382Z,37.05
2023-03-11T07:51:03.386Z,37.24
2023-03-11T07:53:07.800Z,37.13
2023-03-11T07:55:12.652Z,37.29
2023-03-11T07:57:17.541Z,37.00
2023-03-11T07:59:22.692Z,37.35
2023-03-11T08:01:36.269Z,37.01
2023-03-11T08:03:41.015Z,36.93
2023-03-11T08:05:45.507Z,37.11
2023-03-11T08:07:49.913Z,37.21
2023-03-11T08:09:55.535Z,37.18
2023-03-11T08:12:00.141Z,36.99
2023-03-11T08:14:04.658Z,37.22
2023-03-11T08:16:10.601Z,37.05
2023-03-11T08:18:17.984Z,37.12
2023-03-11T08:20:22.595Z,37.00
2023-03-11T08:22:27.028Z,36.85
2023-03-11T08:24:31.871Z,37.17
2023-03-11T08:26:36.737Z,36.96
2023-03-11T08:28:41.596Z,37.03
2023-03-11T08:30:46.113Z,37.03
2023-03-11T08:32:50.586Z,36.72
2023-03-11T08:34:57.816Z,36.84
2023-03-11T08:37:02.552Z,36.91
2023-03-11T08:39:07.262Z,36.77
2023-03-11T08:41:12.060Z,36.87
2023-03-11T08:43:16.677Z,37.18
2023-03-11T08:45:21.374Z,36.89
2023-03-11T08:47:25.873Z,37.16
2023-03-11T08:49:30.280Z,37.22
2023-03-11T08:51:38.017Z,36.98
2023-03-11T08:53:42.473Z,37.10
2023-03-11T08:55:47.276Z,36.98
2023-03-11T08:57:51.997Z,37.00
2023-03-11T08:59:58.335Z,37.00
2023-03-11T09:02:02.792Z,37.17
2023-03-11T09:04:07.752Z,37.07
2023-03-11T09:06:15.445Z,37.22
2023-03-11T09:08:22.766Z,36.93
2023-03-11T09:10:27.214Z,37.01
2023-03-11T09:12:31.858Z,36.80
2023-03-11T09:14:39.436Z,36.76
2023-03-11T09:16:44.145Z,36.88
2023-03-11T09:18:48.766Z,37.06
2023-03-11T09:20:58.293Z,37.00
2023-03-11T09:23:02.798Z,36.60
2023-03-11T09:25:11.112Z,36.65
2023-03-11T09:27:15.944Z,36.75
2023-03-11T09:29:20.653Z,36.97
2023-03-11T09:31:25.128Z,36.78
2023-03-11T09:33:30.233Z,36.72
2023-03-11T09:35:34.977Z,36.49
2023-03-11T09:37:39.473Z,36.68
2023-03-11T09:39:43.928Z,36.44
2023-03-11T09:41:58.745Z,36.36
2023-03-11T09:44:21.547Z,36.51
2023-03-11T09:46:41.209Z,36.54
2023-03-11T09:48:47.727Z,36.32
2023-03-11T09:50:55.232Z,36.62
2023-03-11T09:53:06.768Z,36.31
2023-03-11T09:55:23.803Z,36.47
2023-03-11T09:57:33.608Z,36.29
2023-03-11T09:59:40.068Z,36.42
2023-03-11T10:01:47.359Z,36.12
2023-03-11T10:03:53.081Z,36.48
2023-03-11T10:06:01.383Z,36.38
2023-03-11T10:08:11.731Z,36.04
2023-03-11T10:10:16.730Z,36.18
2023-03-11T10:12:25.980Z,36.12
2023-03-11T10:14:47.706Z,36.26
2023-03-11T10:16:58.395Z,36.07
2023-03-11T10:19:05.639Z,36.31
2023-03-11T10:21:14.493Z,36.20
2023-03-11T10:23:24.854Z,36.13
2023-03-11T10:25:31.613Z,36.39
2023-03-11T10:27:41.974Z,36.25
2023-03-11T10:29:53.264Z,36.21
2023-03-11T10:32:00.212Z,36.39
2023-03-11T10:34:05.845Z,36.20
2023-03-11T10:36:14.830Z,36.07
2023-03-11T10:38:21.668Z,36.04
2023-03-11T10:40:29.243Z,35.98
2023-03-11T10:42:33.802Z,35.85
2023-03-11T10:44:39.653Z,35.90
2023-03-11T10:46:47.717Z,36.24
2023-03-11T10:48:52.525Z,35.83
2023-03-11T10:51:00.467Z,35.88
2023-03-11T10:53:09.378Z,36.15
2023-03-11T10:55:20.076Z,36.30
2023-03-11T10:57:27.177Z,36.09
2023-03-11T10:59:34.034Z,35.89
2023-03-11T11:01:38.794Z,36.07
2023-03-11T11:03:49.372Z,36.17
2023-03-11T11:06:02.078Z,36.08
2023-03-11T11:08:07.955Z,36.15
2023-03-11T11:10:17.926Z,36.27
2023-03-11T11:12:24.014Z,36.18
2023-03-11T11:14:28.790Z,35.98
2023-03-11T11:16:35.692Z,35.83
2023-03-11T11:18:47.125Z,36.08
2023-03-11T11:21:01.101Z,36.22
2023-03-11T11:23:06.554Z,36.10
2023-03-11T11:25:25.999Z,35.86
2023-03-11T11:27:32.904Z,35.76
2023-03-11T11:29:37.648Z,36.03
2023-03-11T11:31:42.882Z,35.70
2023-03-11T11:33:52.225Z,35.55
2023-03-11T11:36:00.819Z,35.85
2023-03-11T11:38:06.127Z,35.74
2023-03-11T11:40:28.750Z,35.79
2023-03-11T11:42:34.218Z,35.93
2023-03-11T11:44:38.664Z,35.66
2023-03-11T11:46:44.602Z,35.62
2023-03-11T11:48:52.381Z,35.79
2023-03-11T11:51:01.738Z,35.75
2023-03-11T11:53:13.050Z,35.93
2023-03-11T11:55:23.384Z,35.96
2023-03-11T11:57:27.972Z,35.64
2023-03-11T11:59:33.812Z,35.96
2023-03-11T12:01:42.742Z,35.79
2023-03-11T12:03:58.838Z,35.98
2023-03-11T12:06:09.933Z,35.79
2023-03-11T12:08:19.327Z,35.59
2023-03-11T12:10:27.260Z,35.76
2023-03-11T12:12:35.890Z,35.60
2023-03-11T12:14:43.800Z,35.47
2023-03-11T12:16:53.284Z,35.71
2023-03-11T12:19:01.367Z,35.34
2023-03-11T12:21:14.658Z,35.75
2023-03-11T12:23:20.966Z,35.33
2023-03-11T12:25:30.128Z,35.43
2023-03-11T12:27:36.955Z,35.42
2023-03-11T12:29:43.461Z,35.47
2023-03-11T12:31:48.357Z,35.80
2023-03-11T12:33:53.847Z,35.35
2023-03-11T12:35:59.682Z,35.40
2023-03-11T12:38:09.049Z,35.39
2023-03-11T12:40:35.101Z,35.33
2023-03-11T12:42:42.055Z,35.18
2023-03-11T12:44:46.903Z,35.31
2023-03-11T12:47:12.461Z,35.17
2023-03-11T12:49:17.070Z,35.27
2023-03-11T12:51:39.193Z,35.46
2023-03-11T12:53:50.780Z,35.17
2023-03-11T12:56:04.203Z,35.02
2023-03-11T12:58:25.227Z,34.98
2023-03-11T13:00:36.324Z,35.00
2023-03-11T13:02:55.834Z,34.94
2023-03-11T13:05:02.605Z,35.03
2023-03-11T13:07:22.034Z,34.88
2023-03-11T13:09:31.477Z,35.01
2023-03-11T13:11:41.483Z,34.94
2023-03-11T13:13:46.002Z,34.92
2023-03-11T13:15:50.448Z,35.06
2023-03-11T13:18:05.375Z,35.08
2023-03-11T13:20:30.378Z,35.19
2023-03-11T13:23:07.212Z,34.92
2023-03-11T13:25:26.667Z,35.04
2023-03-11T13:27:41.445Z,34.85
2023-03-11T13:29:52.087Z,35.10
2023-03-11T13:32:05.242Z,34.96
2023-03-11T13:34:17.117Z,34.88
2023-03-11T13:36:36.331Z,34.97
2023-03-11T13:38:47.378Z,35.01
2023-03-11T13:40:52.645Z,34.66
2023-03-11T13:43:04.147Z,35.09
2023-03-11T13:45:10.192Z,34.69
2023-03-11T13:47:17.148Z,34.79
2023-03-11T13:49:34.036Z,34.83
2023-03-11T13:51:40.751Z,34.93
2023-03-11T13:53:47.874Z,34.94
2023-03-11T13:55:52.856Z,34.85
2023-03-11T13:58:00.778Z,34.58
2023-03-11T14:00:17.749Z,34.67
2023-03-11T14:02:23.265Z,34.88
2023-03-11T14:04:29.675Z,34.76
2023-03-11T14:06:34.312Z,34.99
2023-03-11T14:08:39.321Z,34.73
2023-03-11T14:10:43.838Z,34.95
2023-03-11T14:12:48.606Z,34.68
2023-03-11T14:14:59.012Z,34.63
2023-03-11T14:17:04.357Z,34.82
2023-03-11T14:19:16.075Z,34.68
2023-03-11T14:21:21.790Z,34.62
2023-03-11T14:23:28.906Z,34.54
2023-03-11T14:25:36.486Z,34.57
2023-03-11T14:27:40.968Z,34.65
2023-03-11T14:29:45.967Z,34.85
2023-03-11T14:31:52.958Z,34.51
2023-03-11T14:33:58.822Z,34.84
2023-03-11T14:36:04.973Z,34.85
2023-03-11T14:38:23.249Z,34.39
2023-03-11T14:40:29.517Z,34.64
2023-03-11T14:42:36.959Z,34.79
2023-03-11T14:44:42.837Z,34.56
2023-03-11T14:46:47.979Z,34.66
2023-03-11T14:48:56.631Z,34.71
2023-03-11T14:51:03.056Z,34.74
2023-03-11T14:53:10.923Z,34.44
2023-03-11T14:55:17.082Z,34.74
2023-03-11T14:57:25.365Z,34.46
2023-03-11T14:59:32.441Z,34.45
2023-03-11T15:01:40.637Z,34.49
2023-03-11T15:03:48.395Z,34.49
2023-03-11T15:05:57.241Z,34.66
2023-03-11T15:08:03.188Z,34.60
2023-03-11T15:10:10.090Z,34.57
2023-03-11T15:12:30.145Z,34.40
2023-03-11T15:14:35.443Z,34.42
2023-03-11T15:16:40.253Z,34.45
2023-03-11T15:18:46.742Z,34.59
2023-03-11T15:21:03.760Z,34.47
2023-03-11T15:23:22.125Z,34.38
2023-03-11T15:25:26.682Z,34.40
2023-03-11T15:27:32.740Z,34.47
2023-03-11T15:29:37.906Z,34.59
2023-03-11T15:31:44.936Z,34.28
2023-03-11T15:33:49.879Z,34.41
2023-03-11T15:35:54.272Z,34.28
2023-03-11T15:38:13.688Z,34.17
2023-03-11T15:40:35.197Z,34.42
2023-03-11T15:42:43.273Z,34.20
2023-03-11T15:44:52.692Z,34.26
2023-03-11T15:46:59.325Z,34.22
2023-03-11T15:49:05.684Z,34.28
2023-03-11T15:51:21.056Z,34.29
2023-03-11T15:53:27.300Z,34.21
2023-03-11T15:55:34.575Z,34.18
2023-03-11T15:57:38.981Z,34.17
2023-03-11T15:59:43.913Z,34.38
2023-03-11T16:01:49.059Z,34.07
2023-03-11T16:03:53.659Z,34.30
2023-03-11T16:05:58.134Z,34.16
2023-03-11T16:08:02.533Z,34.06
2023-03-11T16:10:07.526Z,34.17
2023-03-11T16:12:24.452Z,34.02
2023-03-11T16:14:28.938Z,34.38
2023-03-11T16:16:33.697Z,34.36
2023-03-11T16:18:38.507Z,34.19
2023-03-11T16:20:44.750Z,34.06
2023-03-11T16:22:50.461Z,34.08
2023-03-11T16:24:56.173Z,34.37
2023-03-11T16:27:00.962Z,34.32
2023-03-11T16:29:18.539Z,34.14
2023-03-11T16:31:23.468Z,34.02
2023-03-11T16:33:27.950Z,34.32
2023-03-11T16:35:32.769Z,34.32
2023-03-11T16:37:37.176Z,33.92
2023-03-11T16:39:41.711Z,33.82
2023-03-11T16:41:46.797Z,34.04
2023-03-11T16:43:51.196Z,34.23
2023-03-11T16:45:58.636Z,33.80
2023-03-11T16:48:03.044Z,33.95
2023-03-11T16:50:08.100Z,34.07
2023-03-11T16:52:12.529Z,34.07
2023-03-11T16:54:17.095Z,33.98
2023-03-11T16:56:22.786Z,33.81
2023-03-11T16:58:27.233Z,33.89
2023-03-11T17:00:31.615Z,33.80
2023-03-11T17:02:38.725Z,33.95
2023-03-11T17:04:43.150Z,33.98
2023-03-11T17:06:47.795Z,34.09
2023-03-11T17:08:52.425Z,33.82
2023-03-11T17:10:56.921Z,34.12
2023-03-11T17:13:01.317Z,33.72
2023-03-11T17:15:06.258Z,34.04
2023-03-11T17:17:10.673Z,34.00
2023-03-11T17:19:18.011Z,33.90
2023-03-11T17:21:22.590Z,33.86
2023-03-11T17:23:27.041Z,34.10
2023-03-11T17:25:31.441Z,33.83
2023-03-11T17:27:36.440Z,34.10
2023-03-11T17:29:41.165Z,33.92
2023-03-11T17:31:45.649Z,34.03
2023-03-11T17:33:50.792Z,33.79
2023-03-11T17:36:05.260Z,33.81
2023-03-11T17:38:09.822Z,33.77
2023-03-11T17:40:15.046Z,33.83
2023-03-11T17:42:19.404Z,34.23
2023-03-11T17:44:23.854Z,34.42
2023-03-11T17:46:28.277Z,34.51
2023-03-11T17:48:32.676Z,34.21
2023-03-11T17:50:39.210Z,34.53
2023-03-11T17:52:48.472Z,34.38
2023-03-11T17:54:53.578Z,34.35
2023-03-11T17:56:58.392Z,34.46
2023-03-11T17:59:02.785Z,34.57
2023-03-11T18:01:07.554Z,34.72
2023-03-11T18:03:11.918Z,34.62
2023-03-11T18:05:18.683Z,34.65
2023-03-11T18:07:23.802Z,34.69
2023-03-11T18:09:30.974Z,34.66
2023-03-11T18:11:35.486Z,34.84
2023-03-11T18:13:40.471Z,34.82
2023-03-11T18:15:44.847Z,34.56
2023-03-11T18:17:49.739Z,34.63
2023-03-11T18:19:54.127Z,34.92
2023-03-11T18:21:58.592Z,34.66
2023-03-11T18:24:03.412Z,34.83
2023-03-11T18:26:11.288Z,34.78
2023-03-11T18:28:15.686Z,34.87
2023-03-11T18:30:20.590Z,34.66
2023-03-11T18:32:24.975Z,35.03
2023-03-11T18:34:29.587Z,34.86
2023-03-11T18:36:34.949Z,35.06
2023-03-11T18:38:39.420Z,34.76
2023-03-11T18:40:44.387Z,34.81
2023-03-11T18:42:51.407Z,34.83
2023-03-11T18:44:55.738Z,35.09
2023-03-11T18:47:00.151Z,34.98
2023-03-11T18:49:05.697Z,34.80
2023-03-11T18:51:11.206Z,35.06
2023-03-11T18:53:15.600Z,34.82
2023-03-11T18:55:20.026Z,35.06
2023-03-11T18:57:26.090Z,35.09
2023-03-11T18:59:33.605Z,35.11
2023-03-11T19:01:38.104Z,35.04
2023-03-11T19:03:42.664Z,35.14
2023-03-11T19:05:50.722Z,35.19
2023-03-11T19:07:55.283Z,35.23
2023-03-11T19:09:59.846Z,35.06
2023-03-11T19:12:04.315Z,35.14
2023-03-11T19:14:08.753Z,34.92
2023-03-11T19:16:16.671Z,34.93
2023-03-11T19:18:21.111Z,35.09
2023-03-11T19:20:27.114Z,34.90
2023-03-11T19:22:31.452Z,35.20
2023-03-11T19:24:35.980Z,34.96
2023-03-11T19:26:45.172Z,34.97
2023-03-11T19:28:50.429Z,35.10
2023-03-11T19:30:55.270Z,35.00
2023-03-11T19:33:02.358Z,35.05
2023-03-11T19:35:07.023Z,34.97
2023-03-11T19:37:11.453Z,34.97
2023-03-11T19:39:15.826Z,34.88
2023-03-11T19:41:23.096Z,34.99
2023-03-11T19:43:28.628Z,35.15
2023-03-11T19:45:32.980Z,35.16
2023-03-11T19:47:37.351Z,35.07
2023-03-11T19:49:44.375Z,34.98
2023-03-11T19:51:50.571Z,35.11
2023-03-11T19:53:55.166Z,35.11
2023-03-11T19:56:00.283Z,35.09
2023-03-11T19:58:04.706Z,35.08
2023-03-11T20:00:10.560Z,35.40
2023-03-11T20:02:16.634Z,35.24
2023-03-11T20:04:21.088Z,35.22
2023-03-11T20:06:28.796Z,35.33
2023-03-11T20:08:36.724Z,35.12
2023-03-11T20:10:42.349Z,35.37
2023-03-11T20:13:01.263Z,35.36
2023-03-11T20:15:06.715Z,35.41
2023-03-11T20:17:11.485Z,35.19
2023-03-11T20:19:15.951Z,35.44
2023-03-11T20:21:20.359Z,35.36
2023-03-11T20:23:27.610Z,35.49
2023-03-11T20:25:32.462Z,35.12
2023-03-11T20:27:37.022Z,35.27
2023-03-11T20:29:41.544Z,35.36
2023-03-11T20:31:46.133Z,35.40
2023-03-11T20:33:50.966Z,35.26
2023-03-11T20:36:05.099Z,35.61
2023-03-11T20:38:10.330Z,35.44
2023-03-11T20:40:18.404Z,35.46
2023-03-11T20:42:23.070Z,35.52
2023-03-11T20:44:27.467Z,35.44
2023-03-11T20:46:31.944Z,35.62
2023-03-11T20:48:36.877Z,35.28
2023-03-11T20:50:41.284Z,35.47
2023-03-11T20:52:47.616Z,35.64
2023-03-11T20:54:52.209Z,35.32
2023-03-11T20:56:59.446Z,35.50
2023-03-11T20:59:05.366Z,35.56
2023-03-11T21:01:15.315Z,35.25
2023-03-11T21:03:19.764Z,35.49
2023-03-11T21:05:24.281Z,35.36
2023-03-11T21:07:28.879Z,35.63
2023-03-11T21:09:33.291Z,35.62
2023-03-11T21:11:37.719Z,35.55
2023-03-11T21:13:44.899Z,35.43
2023-03-11T21:15:49.343Z,35.39
2023-03-11T21:17:53.904Z,35.50
2023-03-11T21:19:58.293Z,35.58
2023-03-11T21:22:02.775Z,35.49
2023-03-11T21:24:07.793Z,35.48
2023-03-11T21:26:13.302Z,35.59
2023-03-11T21:28:17.738Z,35.49
2023-03-11T21:30:24.899Z,35.50
2023-03-11T21:32:31.519Z,35.54
2023-03-11T21:34:36.112Z,35.76
2023-03-11T21:36:40.704Z,35.62
2023-03-11T21:38:45.235Z,35.34
2023-03-11T21:40:49.693Z,35.74
2023-03-11T21:42:54.237Z,35.47
2023-03-11T21:44:58.791Z,35.44
2023-03-11T21:47:05.915Z,35.70
2023-03-11T21:49:10.424Z,35.49
2023-03-11T21:51:15.255Z,35.84
2023-03-11T21:53:19.683Z,35.55
2023-03-11T21:55:24.248Z,35.51
2023-03-11T21:57:28.758Z,35.73
2023-03-11T21:59:33.306Z,35.37
2023-03-11T22:01:37.907Z,35.60
2023-03-11T22:03:45.119Z,35.53
2023-03-11T22:05:49.774Z,35.40
2023-03-11T22:07:54.168Z,35.47
2023-03-11T22:09:58.605Z,35.41
2023-03-11T22:12:03.189Z,35.57
2023-03-11T22:14:07.577Z,35.90
2023-03-11T22:16:12.225Z,35.79
2023-03-11T22:18:16.695Z,35.74
2023-03-11T22:20:23.937Z,35.65
2023-03-11T22:22:28.777Z,35.73
2023-03-11T22:24:33.221Z,35.62
2023-03-11T22:26:37.749Z,35.52
2023-03-11T22:28:42.302Z,35.70
2023-03-11T22:30:46.638Z,35.76
2023-03-11T22:32:51.413Z,35.67
2023-03-11T22:34:55.843Z,35.71
2023-03-11T22:37:02.871Z,35.58
2023-03-11T22:39:07.594Z,35.58
2023-03-11T22:41:11.979Z,35.84
2023-03-11T22:43:16.353Z,35.69
2023-03-11T22:45:22.346Z,35.75
2023-03-11T22:47:26.922Z,35.92
2023-03-11T22:49:31.416Z,35.83
2023-03-11T22:51:35.786Z,35.65
2023-03-11T22:53:42.740Z,35.85
2023-03-11T22:55:47.385Z,35.60
2023-03-11T22:57:51.722Z,35.69
2023-03-11T22:59:56.046Z,35.61
2023-03-11T23:02:00.491Z,35.71
2023-03-11T23:04:04.860Z,35.59
2023-03-11T23:06:10.338Z,35.45
2023-03-11T23:08:15.352Z,35.56
2023-03-11T23:10:25.424Z,35.72
2023-03-11T23:12:29.872Z,35.55
2023-03-11T23:14:44.696Z,35.72
2023-03-11T23:16:49.498Z,35.44
2023-03-11T23:18:54.767Z,35.67
2023-03-11T23:20:59.168Z,35.86
2023-03-11T23:23:03.507Z,35.63
2023-03-11T23:25:08.746Z,35.71
2023-03-11T23:27:15.846Z,35.69
2023-03-11T23:29:20.181Z,35.98
2023-03-11T23:31:26.480Z,35.59
2023-03-11T23:33:30.884Z,35.66
2023-03-11T23:35:35.813Z,35.54
2023-03-11T23:37:40.285Z,35.90
2023-03-11T23:39:44.608Z,35.87
2023-03-11T23:41:48.933Z,35.80
2023-03-11T23:43:55.900Z,35.84
2023-03-11T23:46:00.260Z,35.78
2023-03-11T23:48:04.662Z,35.86
2023-03-11T23:50:09.577Z,35.87
2023-03-11T23:52:14.139Z,35.91
2023-03-11T23:54:18.467Z,35.97
2023-03-11T23:56:22.949Z,35.73
2023-03-11T23:58:27.647Z,35.72
